Time;durP1;ratioP1;P1;durP2;ratioP2;P2;SDS_P1;SDS_P2;PMS_P1;PMS_P2;Temp;Humidity;BMP_temperature;BMP_pressure;BME280_temperature;BME280_humidity;BME280_pressure;Samples;Min_cycle;Max_cycle;Signal;HPM_P1;HPM_P2
2022/02/28 00:00:28;;;;;;;14.23;10.02;;;;;;;;;;5002270;28;20547;-58
2022/02/28 00:02:53;;;;;;;12.25;7.88;;;;;;;;;;5002310;28;20610;-57
2022/02/28 00:05:18;;;;;;;12.65;7.55;;;;;;;;;;5002931;28;20110;-57
2022/02/28 00:07:44;;;;;;;15.00;9.10;;;;;;;;;;5003581;28;20882;-59
2022/02/28 00:10:09;;;;;;;12.97;8.53;;;;;;;;;;5003878;28;20190;-60
2022/02/28 00:12:34;;;;;;;12.85;8.60;;;;;;;;;;5003437;28;20116;-56
2022/02/28 00:15:00;;;;;;;14.43;9.13;;;;;;;;;;5000427;28;20105;-57
2022/02/28 00:17:25;;;;;;;12.32;7.80;;;;;;;;;;4990953;28;20102;-60
2022/02/28 00:19:50;;;;;;;13.50;8.10;;;;;;;;;;4997562;28;20110;-60
2022/02/28 00:22:15;;;;;;;13.17;7.97;;;;;;;;;;4997027;28;20122;-56
2022/02/28 00:24:41;;;;;;;14.10;8.50;;;;;;;;;;5003454;28;20348;-59
2022/02/28 00:27:06;;;;;;;13.80;8.33;;;;;;;;;;5000843;28;20078;-60
2022/02/28 00:29:31;;;;;;;15.33;8.20;;;;;;;;;;5010866;28;20106;-57
2022/02/28 00:31:56;;;;;;;15.13;9.03;;;;;;;;;;5003268;28;20745;-57
2022/02/28 00:34:22;;;;;;;10.87;8.13;;;;;;;;;;5006449;28;20407;-59
2022/02/28 00:36:47;;;;;;;12.47;6.50;;;;;;;;;;5000421;28;20181;-58
2022/02/28 00:39:12;;;;;;;12.73;7.67;;;;;;;;;;5006631;28;20079;-57
2022/02/28 00:41:37;;;;;;;13.57;8.93;;;;;;;;;;4990415;28;20750;-57
2022/02/28 00:44:03;;;;;;;14.63;8.30;;;;;;;;;;5003913;28;20074;-57
2022/02/28 00:46:28;;;;;;;12.70;8.67;;;;;;;;;;4992153;28;20555;-59
2022/02/28 00:48:54;;;;;;;12.33;7.60;;;;;;;;;;5000700;28;20102;-58
2022/02/28 00:51:19;;;;;;;10.63;6.30;;;;;;;;;;4994758;28;20091;-60
2022/02/28 00:53:44;;;;;;;13.90;8.40;;;;;;;;;;4999088;28;20176;-57
2022/02/28 00:56:09;;;;;;;13.03;8.27;;;;;;;;;;4998731;28;20297;-58
2022/02/28 00:58:35;;;;;;;11.77;7.20;;;;;;;;;;5001518;28;20193;-61
2022/02/28 01:01:00;;;;;;;12.73;7.97;;;;;;;;;;4997587;28;20476;-57
2022/02/28 01:03:26;;;;;;;13.23;7.30;;;;;;;;;;4995310;28;20082;-60
2022/02/28 01:05:51;;;;;;;12.45;8.32;;;;;;;;;;5002756;28;20110;-61
2022/02/28 01:08:16;;;;;;;12.05;7.53;;;;;;;;;;5002745;28;20074;-60
2022/02/28 01:10:42;;;;;;;11.00;7.77;;;;;;;;;;5003712;28;21431;-59
2022/02/28 01:13:10;;;;;;;11.43;7.57;;;;;;;;;;5000747;28;20157;-59
2022/02/28 01:15:35;;;;;;;10.40;6.80;;;;;;;;;;4999467;28;20086;-59
2022/02/28 01:18:01;;;;;;;12.23;7.30;;;;;;;;;;4993225;28;20114;-61
2022/02/28 01:20:26;;;;;;;9.07;6.20;;;;;;;;;;4995486;28;20093;-59
2022/02/28 01:22:51;;;;;;;11.43;7.73;;;;;;;;;;5002283;28;20120;-55
2022/02/28 01:25:16;;;;;;;11.27;7.37;;;;;;;;;;5002440;28;20350;-59
2022/02/28 01:27:42;;;;;;;11.97;6.70;;;;;;;;;;4991788;28;20071;-58
2022/02/28 01:30:07;;;;;;;9.60;6.07;;;;;;;;;;5009188;28;20123;-61
2022/02/28 01:32:32;;;;;;;11.40;7.10;;;;;;;;;;4992391;28;20391;-60
2022/02/28 01:34:58;;;;;;;10.10;6.10;;;;;;;;;;5000701;28;20085;-59
2022/02/28 01:37:23;;;;;;;7.97;5.05;;;;;;;;;;4994431;28;20111;-59
2022/02/28 01:39:48;;;;;;;10.60;7.20;;;;;;;;;;5002027;28;20083;-60
2022/02/28 01:42:13;;;;;;;10.13;6.90;;;;;;;;;;4995781;28;21003;-62
2022/02/28 01:44:39;;;;;;;10.32;6.60;;;;;;;;;;4995075;28;20207;-62
2022/02/28 01:47:04;;;;;;;9.13;6.30;;;;;;;;;;5002468;28;20062;-59
2022/02/28 01:49:30;;;;;;;11.27;6.57;;;;;;;;;;5001124;28;20098;-59
2022/02/28 01:51:56;;;;;;;10.63;6.47;;;;;;;;;;4989301;28;20576;-60
2022/02/28 01:54:21;;;;;;;9.80;6.30;;;;;;;;;;5000554;28;20106;-59
2022/02/28 01:56:46;;;;;;;9.03;6.10;;;;;;;;;;4990188;28;20096;-60
2022/02/28 01:59:11;;;;;;;9.70;6.23;;;;;;;;;;5014730;28;20173;-57
2022/02/28 02:01:36;;;;;;;11.57;6.80;;;;;;;;;;4990229;28;20200;-57
2022/02/28 02:04:02;;;;;;;9.83;6.57;;;;;;;;;;5011311;28;20101;-60
2022/02/28 02:06:27;;;;;;;10.32;6.50;;;;;;;;;;5001459;28;20353;-57
2022/02/28 02:08:52;;;;;;;9.77;6.50;;;;;;;;;;5000591;28;20649;-58
2022/02/28 02:11:18;;;;;;;11.47;6.30;;;;;;;;;;4988383;28;20326;-58
2022/02/28 02:13:43;;;;;;;10.35;6.20;;;;;;;;;;5001826;28;20337;-59
2022/02/28 02:16:08;;;;;;;11.93;6.40;;;;;;;;;;4995443;28;20075;-56
2022/02/28 02:18:33;;;;;;;9.60;6.33;;;;;;;;;;5001885;28;20134;-58
2022/02/28 02:20:59;;;;;;;9.03;6.30;;;;;;;;;;4993922;28;20204;-60
2022/02/28 02:23:27;;;;;;;9.73;6.20;;;;;;;;;;5001986;28;20499;-59
2022/02/28 02:25:52;;;;;;;9.83;6.90;;;;;;;;;;4991836;28;20118;-59
2022/02/28 02:28:19;;;;;;;9.83;5.87;;;;;;;;;;4997585;28;20083;-57
2022/02/28 02:30:48;;;;;;;9.00;5.45;;;;;;;;;;5000482;28;20109;-58
2022/02/28 02:33:13;;;;;;;;;;;;;;;;;;4999564;28;20193;-60
2022/02/28 02:35:38;;;;;;;10.10;5.97;;;;;;;;;;5001697;28;20016;-59
2022/02/28 02:38:03;;;;;;;10.63;6.50;;;;;;;;;;4988287;28;20133;-59
2022/02/28 02:40:29;;;;;;;8.97;5.23;;;;;;;;;;5001414;28;20176;-57
2022/02/28 02:42:54;;;;;;;11.03;5.73;;;;;;;;;;4988631;28;20244;-60
2022/02/28 02:45:19;;;;;;;8.30;5.50;;;;;;;;;;5001349;28;20102;-59
2022/02/28 02:47:44;;;;;;;9.60;6.20;;;;;;;;;;5004056;28;20401;-57
2022/02/28 02:50:10;;;;;;;7.60;5.17;;;;;;;;;;4999032;28;20439;-58
2022/02/28 02:52:35;;;;;;;9.98;6.07;;;;;;;;;;4997619;28;20082;-60
2022/02/28 02:55:00;;;;;;;10.10;5.88;;;;;;;;;;5000291;28;20116;-57
2022/02/28 02:57:25;;;;;;;9.17;5.90;;;;;;;;;;4996518;28;20109;-60
2022/02/28 02:59:51;;;;;;;9.33;5.77;;;;;;;;;;5001950;28;20094;-59
2022/02/28 03:02:16;;;;;;;9.17;5.97;;;;;;;;;;5001770;28;20112;-61
2022/02/28 03:04:42;;;;;;;9.20;5.70;;;;;;;;;;5001025;28;20193;-57
2022/02/28 03:07:13;;;;;;;8.52;5.78;;;;;;;;;;4996211;28;20078;-60
2022/02/28 03:09:39;;;;;;;9.10;5.85;;;;;;;;;;5001442;28;20226;-59
2022/02/28 03:12:04;;;;;;;9.20;5.23;;;;;;;;;;4995327;28;20507;-59
2022/02/28 03:14:29;;;;;;;10.10;5.85;;;;;;;;;;5003581;28;20165;-58
2022/02/28 03:16:54;;;;;;;9.03;5.47;;;;;;;;;;4996154;28;20106;-56
2022/02/28 03:19:20;;;;;;;9.07;5.63;;;;;;;;;;5004768;28;20169;-58
2022/02/28 03:21:45;;;;;;;7.83;5.50;;;;;;;;;;4994639;28;20190;-59
2022/02/28 03:24:10;;;;;;;8.57;5.30;;;;;;;;;;5005232;28;20078;-58
2022/02/28 03:26:35;;;;;;;8.75;5.40;;;;;;;;;;4991328;28;20106;-59
2022/02/28 03:29:01;;;;;;;9.13;5.67;;;;;;;;;;5004578;28;20707;-61
2022/02/28 03:31:26;;;;;;;8.63;5.50;;;;;;;;;;5004773;28;20543;-58
2022/02/28 03:33:51;;;;;;;9.97;5.97;;;;;;;;;;4991814;28;20560;-59
2022/02/28 03:36:16;;;;;;;10.27;5.77;;;;;;;;;;5004330;28;20463;-58
2022/02/28 03:38:41;;;;;;;9.27;5.30;;;;;;;;;;5003171;28;20078;-58
2022/02/28 03:41:07;;;;;;;8.03;5.33;;;;;;;;;;5007854;28;20416;-61
2022/02/28 03:43:32;;;;;;;8.47;5.00;;;;;;;;;;4994779;28;20071;-59
2022/02/28 03:45:57;;;;;;;9.40;5.47;;;;;;;;;;5001446;28;20110;-59
2022/02/28 03:48:22;;;;;;;8.80;5.30;;;;;;;;;;5004102;28;20070;-58
2022/02/28 03:50:48;;;;;;;8.17;5.30;;;;;;;;;;4991442;28;20544;-58
2022/02/28 03:53:13;;;;;;;7.03;5.03;;;;;;;;;;5004097;28;20114;-61
2022/02/28 03:55:38;;;;;;;9.37;5.80;;;;;;;;;;4991413;28;20317;-57
2022/02/28 03:58:03;;;;;;;9.37;5.60;;;;;;;;;;4995543;28;20186;-57
2022/02/28 04:00:28;;;;;;;7.40;5.00;;;;;;;;;;4996376;28;20094;-60
2022/02/28 04:02:54;;;;;;;9.00;5.20;;;;;;;;;;5004306;28;20066;-58
2022/02/28 04:05:19;;;;;;;9.87;5.83;;;;;;;;;;4990227;28;20921;-60
2022/02/28 04:07:46;;;;;;;8.40;4.83;;;;;;;;;;5004322;28;20074;-58
2022/02/28 04:10:11;;;;;;;8.13;5.38;;;;;;;;;;5004000;28;20134;-58
2022/02/28 04:12:36;;;;;;;9.77;5.67;;;;;;;;;;5001499;28;20579;-57
2022/02/28 04:15:02;;;;;;;7.47;5.27;;;;;;;;;;5003585;28;20105;-58
2022/02/28 04:17:27;;;;;;;8.70;5.07;;;;;;;;;;4994158;28;20300;-57
2022/02/28 04:19:53;;;;;;;10.30;5.75;;;;;;;;;;4997976;28;20121;-58
2022/02/28 04:22:18;;;;;;;8.80;5.93;;;;;;;;;;5003193;28;20118;-59
2022/02/28 04:24:43;;;;;;;7.73;5.40;;;;;;;;;;5003736;28;20133;-59
2022/02/28 04:27:09;;;;;;;7.80;5.45;;;;;;;;;;5000514;28;20070;-56
2022/02/28 04:29:34;;;;;;;7.70;4.90;;;;;;;;;;4994017;28;20130;-60
2022/02/28 04:32:03;;;;;;;8.18;5.50;;;;;;;;;;5002224;28;20477;-58
2022/02/28 04:34:29;;;;;;;;;;;;;;;;;;4993565;28;20090;-56
2022/02/28 04:36:54;;;;;;;10.15;5.57;;;;;;;;;;5002354;28;20411;-58
2022/02/28 04:39:19;;;;;;;8.03;5.03;;;;;;;;;;4998960;28;20083;-60
2022/02/28 04:41:44;;;;;;;8.77;5.00;;;;;;;;;;5003149;28;20102;-58
2022/02/28 04:44:09;;;;;;;8.73;5.40;;;;;;;;;;5003758;28;20082;-57
2022/02/28 04:46:35;;;;;;;8.33;5.43;;;;;;;;;;4989936;28;20978;-57
2022/02/28 04:49:00;;;;;;;8.40;5.57;;;;;;;;;;5003344;28;20672;-60
2022/02/28 04:51:25;;;;;;;8.97;5.40;;;;;;;;;;4990156;28;20473;-59
2022/02/28 04:53:50;;;;;;;10.97;5.33;;;;;;;;;;5009101;28;20110;-56
2022/02/28 04:56:15;;;;;;;8.77;5.83;;;;;;;;;;4995417;28;20173;-59
2022/02/28 04:58:41;;;;;;;8.73;4.93;;;;;;;;;;5002050;28;20079;-57
2022/02/28 05:01:06;;;;;;;9.43;5.30;;;;;;;;;;5000245;28;20193;-58
2022/02/28 05:03:31;;;;;;;9.47;5.40;;;;;;;;;;5003284;28;20117;-58
2022/02/28 05:05:56;;;;;;;7.93;4.90;;;;;;;;;;4993999;28;20110;-57
2022/02/28 05:08:21;;;;;;;10.03;5.50;;;;;;;;;;4997577;28;20100;-57
2022/02/28 05:10:47;;;;;;;8.80;5.07;;;;;;;;;;5012855;28;20581;-60
2022/02/28 05:13:12;;;;;;;8.20;5.23;;;;;;;;;;4991159;28;20193;-57
2022/02/28 05:15:37;;;;;;;8.63;5.43;;;;;;;;;;5001730;28;20561;-57
2022/02/28 05:18:03;;;;;;;8.87;5.37;;;;;;;;;;5006789;28;20168;-60
2022/02/28 05:20:28;;;;;;;9.87;5.10;;;;;;;;;;4996659;28;20135;-60
2022/02/28 05:22:53;;;;;;;9.32;4.97;;;;;;;;;;5006231;28;20365;-57
2022/02/28 05:25:19;;;;;;;9.50;5.00;;;;;;;;;;5002260;28;20535;-57
2022/02/28 05:27:44;;;;;;;9.77;5.50;;;;;;;;;;4989810;28;20525;-59
2022/02/28 05:30:10;;;;;;;9.23;5.22;;;;;;;;;;5002279;28;20409;-58
2022/02/28 05:32:37;;;;;;;9.18;5.30;;;;;;;;;;4988999;28;20098;-58
2022/02/28 05:35:02;;;;;;;9.77;5.45;;;;;;;;;;4983062;28;20125;-60
2022/02/28 05:37:27;;;;;;;9.88;5.28;;;;;;;;;;4995376;28;20131;-59
2022/02/28 05:39:53;;;;;;;9.73;5.30;;;;;;;;;;5009244;28;20497;-59
2022/02/28 05:42:18;;;;;;;8.03;5.37;;;;;;;;;;5000847;28;20530;-59
2022/02/28 05:44:43;;;;;;;7.43;4.83;;;;;;;;;;4996752;28;20703;-59
2022/02/28 05:47:08;;;;;;;7.67;4.80;;;;;;;;;;5013413;28;20084;-57
2022/02/28 05:49:33;;;;;;;7.20;5.03;;;;;;;;;;5003731;28;20095;-57
2022/02/28 05:51:59;;;;;;;9.27;5.43;;;;;;;;;;5006374;28;20074;-60
2022/02/28 05:54:24;;;;;;;8.00;4.90;;;;;;;;;;5001965;28;20099;-58
2022/02/28 05:56:49;;;;;;;8.30;5.20;;;;;;;;;;5011241;28;20137;-58
2022/02/28 05:59:14;;;;;;;9.23;4.90;;;;;;;;;;4991721;28;20792;-57
2022/02/28 06:01:40;;;;;;;9.47;4.93;;;;;;;;;;5002553;28;20329;-58
2022/02/28 06:04:05;;;;;;;7.73;4.73;;;;;;;;;;5001477;28;20121;-60
2022/02/28 06:06:30;;;;;;;9.37;5.27;;;;;;;;;;5001347;28;20380;-57
2022/02/28 06:08:56;;;;;;;8.93;5.50;;;;;;;;;;4997479;28;20178;-57
2022/02/28 06:11:21;;;;;;;9.32;5.68;;;;;;;;;;4993082;28;20171;-59
2022/02/28 06:13:46;;;;;;;10.07;5.63;;;;;;;;;;5001277;28;20090;-60
2022/02/28 06:16:12;;;;;;;9.43;6.10;;;;;;;;;;4999539;28;20086;-60
2022/02/28 06:18:37;;;;;;;11.67;6.37;;;;;;;;;;5001155;28;20101;-58
2022/02/28 06:21:02;;;;;;;11.87;7.13;;;;;;;;;;5001335;28;20109;-58
2022/02/28 06:23:28;;;;;;;13.70;7.93;;;;;;;;;;5000852;28;20130;-58
2022/02/28 06:25:53;;;;;;;14.80;9.52;;;;;;;;;;5000969;28;20476;-57
2022/02/28 06:28:20;;;;;;;16.80;10.27;;;;;;;;;;5000916;28;20066;-60
2022/02/28 06:30:45;;;;;;;15.52;9.82;;;;;;;;;;5000275;28;20149;-58
2022/02/28 06:33:10;;;;;;;19.10;12.70;;;;;;;;;;5000329;28;20279;-56
2022/02/28 06:35:37;;;;;;;16.47;10.60;;;;;;;;;;4999407;28;20345;-60
2022/02/28 06:38:02;;;;;;;24.40;13.27;;;;;;;;;;4999779;28;20113;-58
2022/02/28 06:40:27;;;;;;;20.73;12.65;;;;;;;;;;5001691;28;20512;-58
2022/02/28 06:42:53;;;;;;;21.00;12.93;;;;;;;;;;4995203;28;20499;-61
2022/02/28 06:45:18;;;;;;;23.07;14.63;;;;;;;;;;4997149;28;20107;-59
2022/02/28 06:47:43;;;;;;;25.85;16.20;;;;;;;;;;4999311;28;20136;-59
2022/02/28 06:50:10;;;;;;;23.77;14.67;;;;;;;;;;4996312;28;20108;-58
2022/02/28 06:52:35;;;;;;;22.08;14.27;;;;;;;;;;5006143;28;20221;-58
2022/02/28 06:55:00;;;;;;;28.97;19.13;;;;;;;;;;4997855;28;20548;-60
2022/02/28 06:57:26;;;;;;;26.07;16.60;;;;;;;;;;4994411;28;20628;-59
2022/02/28 06:59:51;;;;;;;31.43;20.03;;;;;;;;;;5006398;28;20560;-60
2022/02/28 07:02:16;;;;;;;25.33;15.77;;;;;;;;;;5000303;28;20106;-60
2022/02/28 07:04:41;;;;;;;22.33;12.88;;;;;;;;;;4994930;28;20635;-59
2022/02/28 07:07:07;;;;;;;24.47;14.40;;;;;;;;;;5006820;28;20117;-60
2022/02/28 07:09:32;;;;;;;26.23;17.00;;;;;;;;;;5009307;28;20590;-60
2022/02/28 07:11:57;;;;;;;23.92;15.27;;;;;;;;;;4990390;28;20098;-57
2022/02/28 07:14:22;;;;;;;24.93;17.27;;;;;;;;;;5000628;28;20102;-57
2022/02/28 07:16:48;;;;;;;27.87;16.30;;;;;;;;;;4998777;28;20164;-60
2022/02/28 07:19:13;;;;;;;25.40;17.87;;;;;;;;;;5000103;28;20508;-59
2022/02/28 07:21:39;;;;;;;30.67;17.60;;;;;;;;;;5000408;28;20556;-57
2022/02/28 07:24:04;;;;;;;27.17;18.35;;;;;;;;;;4997467;28;20559;-61
2022/02/28 07:26:29;;;;;;;29.00;18.37;;;;;;;;;;5005457;28;20126;-61
2022/02/28 07:28:55;;;;;;;30.30;18.75;;;;;;;;;;4997888;28;20095;-59
2022/02/28 07:31:20;;;;;;;27.67;16.65;;;;;;;;;;4998183;28;20097;-59
2022/02/28 07:33:45;;;;;;;22.30;15.03;;;;;;;;;;5005954;28;20098;-58
2022/02/28 07:36:11;;;;;;;24.83;16.77;;;;;;;;;;4991127;28;20075;-59
2022/02/28 07:38:39;;;;;;;27.90;18.80;;;;;;;;;;5000202;28;20102;-61
2022/02/28 07:41:04;;;;;;;27.58;17.65;;;;;;;;;;5000442;28;20110;-61
2022/02/28 07:43:29;;;;;;;26.43;17.53;;;;;;;;;;5002853;28;20073;-60
2022/02/28 07:45:54;;;;;;;24.07;15.50;;;;;;;;;;5000123;28;20110;-57
2022/02/28 07:48:19;;;;;;;14.57;9.97;;;;;;;;;;4999772;28;20075;-58
2022/02/28 07:50:45;;;;;;;33.30;21.37;;;;;;;;;;5005339;28;20345;-60
2022/02/28 07:53:10;;;;;;;35.37;23.13;;;;;;;;;;5003245;28;20101;-60
2022/02/28 07:55:35;;;;;;;32.77;23.77;;;;;;;;;;4999135;28;20148;-60
2022/02/28 07:58:00;;;;;;;28.33;19.97;;;;;;;;;;4999107;28;20114;-58
2022/02/28 08:00:26;;;;;;;30.67;22.73;;;;;;;;;;5008714;28;20772;-58
2022/02/28 08:02:52;;;;;;;27.10;19.77;;;;;;;;;;5001893;28;20328;-61
2022/02/28 08:05:17;;;;;;;31.05;21.27;;;;;;;;;;4995222;28;20365;-59
2022/02/28 08:07:42;;;;;;;37.07;24.10;;;;;;;;;;4989978;28;20089;-60
2022/02/28 08:10:08;;;;;;;33.00;22.03;;;;;;;;;;4992259;28;20206;-59
2022/02/28 08:12:33;;;;;;;30.75;20.92;;;;;;;;;;4998251;28;20566;-59
2022/02/28 08:14:58;;;;;;;34.27;22.63;;;;;;;;;;4996920;28;20168;-59
2022/02/28 08:17:23;;;;;;;32.07;22.93;;;;;;;;;;4992929;28;20087;-60
2022/02/28 08:19:48;;;;;;;30.43;21.80;;;;;;;;;;5006440;28;20543;-59
2022/02/28 08:22:14;;;;;;;27.67;18.53;;;;;;;;;;4993036;28;20113;-61
2022/02/28 08:24:39;;;;;;;31.57;20.37;;;;;;;;;;4999782;28;20137;-61
2022/02/28 08:27:04;;;;;;;30.07;21.43;;;;;;;;;;4988322;28;20101;-58
2022/02/28 08:29:29;;;;;;;32.30;20.80;;;;;;;;;;4997871;28;20373;-60
2022/02/28 08:31:55;;;;;;;25.50;17.50;;;;;;;;;;4985801;28;20572;-59
2022/02/28 08:34:20;;;;;;;31.20;22.73;;;;;;;;;;4992016;28;20133;-57
2022/02/28 08:36:45;;;;;;;32.07;21.80;;;;;;;;;;4992170;28;20118;-61
2022/02/28 08:39:10;;;;;;;25.30;18.37;;;;;;;;;;4992601;28;20113;-59
2022/02/28 08:41:36;;;;;;;26.37;16.63;;;;;;;;;;4999279;28;20224;-59
2022/02/28 08:44:01;;;;;;;29.92;21.33;;;;;;;;;;4989999;28;20357;-58
2022/02/28 08:46:27;;;;;;;27.02;19.23;;;;;;;;;;4996810;28;20102;-61
2022/02/28 08:48:52;;;;;;;29.67;20.13;;;;;;;;;;4997836;28;20168;-59
2022/02/28 08:51:17;;;;;;;34.73;22.70;;;;;;;;;;4997908;28;20846;-60
2022/02/28 08:53:42;;;;;;;23.67;17.00;;;;;;;;;;4999411;28;20512;-60
2022/02/28 08:56:08;;;;;;;30.70;20.27;;;;;;;;;;5002045;28;20082;-58
2022/02/28 08:58:34;;;;;;;28.42;19.52;;;;;;;;;;5006356;28;20099;-58
2022/02/28 09:00:59;;;;;;;35.77;23.53;;;;;;;;;;4999544;28;20106;-60
2022/02/28 09:03:24;;;;;;;26.97;18.50;;;;;;;;;;4995926;28;20083;-60
2022/02/28 09:05:49;;;;;;;33.20;22.60;;;;;;;;;;4998379;28;20682;-57
2022/02/28 09:08:14;;;;;;;34.43;25.30;;;;;;;;;;4995562;28;20081;-59
2022/02/28 09:10:40;;;;;;;29.90;21.30;;;;;;;;;;4990887;28;20091;-59
2022/02/28 09:13:05;;;;;;;34.20;23.07;;;;;;;;;;4989564;28;20490;-60
2022/02/28 09:15:31;;;;;;;27.20;19.07;;;;;;;;;;4997619;28;20819;-61
2022/02/28 09:17:56;;;;;;;19.35;12.05;;;;;;;;;;5001509;28;20156;-60
2022/02/28 09:20:21;;;;;;;12.53;8.10;;;;;;;;;;4999585;28;20453;-57
2022/02/28 09:22:46;;;;;;;31.83;21.40;;;;;;;;;;4999779;28;20121;-59
2022/02/28 09:25:12;;;;;;;23.00;15.10;;;;;;;;;;5009795;28;20122;-55
2022/02/28 09:27:37;;;;;;;20.38;13.68;;;;;;;;;;4988506;28;20089;-57
2022/02/28 09:30:03;;;;;;;12.35;7.50;;;;;;;;;;5002569;28;20102;-57
2022/02/28 09:32:28;;;;;;;28.67;19.52;;;;;;;;;;5008607;28;20549;-58
2022/02/28 09:34:54;;;;;;;34.35;24.33;;;;;;;;;;5002316;28;20233;-55
2022/02/28 09:37:19;;;;;;;24.77;16.67;;;;;;;;;;4996432;28;20487;-57
2022/02/28 09:39:44;;;;;;;33.33;21.60;;;;;;;;;;4987017;28;20091;-56
2022/02/28 09:42:09;;;;;;;30.37;21.17;;;;;;;;;;4996603;28;20554;-57
2022/02/28 09:44:34;;;;;;;26.50;14.73;;;;;;;;;;4998002;28;20110;-57
2022/02/28 09:47:00;;;;;;;29.03;20.20;;;;;;;;;;4992834;28;20098;-59
2022/02/28 09:49:25;;;;;;;30.70;20.27;;;;;;;;;;4986158;28;20606;-60
2022/02/28 09:51:50;;;;;;;17.53;10.87;;;;;;;;;;5010256;28;20117;-60
2022/02/28 09:54:16;;;;;;;24.13;11.25;;;;;;;;;;4998269;28;20141;-61
2022/02/28 09:56:41;;;;;;;34.28;23.52;;;;;;;;;;4998780;28;20493;-57
2022/02/28 09:59:06;;;;;;;34.13;24.10;;;;;;;;;;4997046;28;20645;-61
2022/02/28 10:01:32;;;;;;;28.53;19.40;;;;;;;;;;4997561;28;20579;-61
2022/02/28 10:03:57;;;;;;;20.00;14.03;;;;;;;;;;4998212;28;20176;-56
2022/02/28 10:06:22;;;;;;;16.10;10.60;;;;;;;;;;5006889;28;20102;-56
2022/02/28 10:08:50;;;;;;;28.25;20.40;;;;;;;;;;4994401;28;20106;-59
2022/02/28 10:11:24;;;;;;;39.55;25.65;;;;;;;;;;4992868;28;20219;-59
2022/02/28 10:13:51;;;;;;;39.80;28.13;;;;;;;;;;5002153;28;20317;-59
2022/02/28 10:16:35;;;;;;;45.08;31.25;;;;;;;;;;4995519;28;20082;-61
2022/02/28 10:19:01;;;;;;;30.38;22.35;;;;;;;;;;5002532;28;20133;-60
2022/02/28 10:21:36;;;;;;;37.28;25.98;;;;;;;;;;5001320;28;20618;-60
2022/02/28 10:24:02;;;;;;;36.65;25.77;;;;;;;;;;4958984;28;20099;-61
2022/02/28 10:26:27;;;;;;;26.25;18.15;;;;;;;;;;4945007;28;20408;-60
2022/02/28 10:29:08;;;;;;;26.70;17.90;;;;;;;;;;4963901;28;20617;-60
2022/02/28 10:31:34;;;;;;;19.20;12.02;;;;;;;;;;4961246;28;20071;-60
2022/02/28 10:33:59;;;;;;;14.70;9.80;;;;;;;;;;4947356;28;20102;-61
2022/02/28 10:36:24;;;;;;;35.33;25.30;;;;;;;;;;4951263;28;20310;-59
2022/02/28 10:38:53;;;;;;;27.37;19.27;;;;;;;;;;4934023;28;20068;-61
2022/02/28 10:41:19;;;;;;;25.77;18.17;;;;;;;;;;4939059;28;20110;-61
2022/02/28 10:43:44;;;;;;;27.57;17.27;;;;;;;;;;4939858;28;20080;-61
2022/02/28 10:46:14;;;;;;;32.72;21.63;;;;;;;;;;4939334;28;20360;-58
2022/02/28 10:48:40;;;;;;;29.80;19.70;;;;;;;;;;4943474;28;20157;-58
2022/02/28 10:51:14;;;;;;;28.27;20.17;;;;;;;;;;4937454;28;20076;-61
2022/02/28 10:53:39;;;;;;;40.13;28.52;;;;;;;;;;4939991;28;20094;-59
2022/02/28 10:56:05;;;;;;;36.33;24.80;;;;;;;;;;4937645;29;20486;-59
2022/02/28 10:58:31;;;;;;;33.20;23.13;;;;;;;;;;4959299;28;20122;-59
2022/02/28 11:00:57;;;;;;;40.08;25.50;;;;;;;;;;4963222;28;20099;-61
2022/02/28 11:03:23;;;;;;;43.25;28.70;;;;;;;;;;4960056;28;20118;-59
2022/02/28 11:05:49;;;;;;;12.68;8.73;;;;;;;;;;4969289;28;20197;-61
2022/02/28 11:08:17;;;;;;;29.73;20.05;;;;;;;;;;4963731;28;20130;-60
2022/02/28 11:10:43;;;;;;;29.42;18.95;;;;;;;;;;4967885;28;20367;-59
2022/02/28 11:13:08;;;;;;;30.38;20.58;;;;;;;;;;4951191;28;20606;-62
2022/02/28 11:15:33;;;;;;;22.00;14.83;;;;;;;;;;4929874;29;20074;-58
2022/02/28 11:17:58;;;;;;;19.60;14.20;;;;;;;;;;4934892;28;20218;-60
2022/02/28 11:20:24;;;;;;;33.33;23.23;;;;;;;;;;4935796;28;20619;-59
2022/02/28 11:22:49;;;;;;;23.17;15.97;;;;;;;;;;4960147;28;20128;-62
2022/02/28 11:25:16;;;;;;;11.60;7.47;;;;;;;;;;4974950;28;20794;-61
2022/02/28 11:27:41;;;;;;;33.05;23.67;;;;;;;;;;4980144;28;20155;-60
2022/02/28 11:30:08;;;;;;;37.45;27.30;;;;;;;;;;4987726;28;20099;-59
2022/02/28 11:32:33;;;;;;;23.33;16.73;;;;;;;;;;5001553;28;20067;-61
2022/02/28 11:35:17;;;;;;;21.90;14.23;;;;;;;;;;5001688;28;20555;-61
2022/02/28 11:37:42;;;;;;;22.98;14.20;;;;;;;;;;4991491;28;20157;-58
2022/02/28 11:40:07;;;;;;;10.00;6.60;;;;;;;;;;4980028;28;20115;-60
2022/02/28 11:42:51;;;;;;;32.00;22.57;;;;;;;;;;4977498;28;20330;-58
2022/02/28 11:45:20;;;;;;;40.90;31.30;;;;;;;;;;4986535;28;20113;-58
2022/02/28 11:47:45;;;;;;;25.58;17.88;;;;;;;;;;4985910;28;20216;-60
2022/02/28 11:50:14;;;;;;;35.53;26.23;;;;;;;;;;4995932;28;20105;-60
2022/02/28 11:52:39;;;;;;;31.80;23.05;;;;;;;;;;5001269;28;20425;-59
2022/02/28 11:55:06;;;;;;;38.60;29.30;;;;;;;;;;5005453;28;20431;-61
2022/02/28 11:57:47;;;;;;;32.65;23.67;;;;;;;;;;5000140;28;20459;-60
2022/02/28 12:00:12;;;;;;;37.30;25.52;;;;;;;;;;4996625;28;20171;-60
2022/02/28 12:02:37;;;;;;;16.03;11.47;;;;;;;;;;5000097;28;20138;-61
2022/02/28 12:05:04;;;;;;;32.97;22.97;;;;;;;;;;5000413;28;20105;-61
2022/02/28 12:07:35;;;;;;;37.40;27.30;;;;;;;;;;4986728;28;20577;-61
2022/02/28 12:10:00;;;;;;;18.67;11.23;;;;;;;;;;5006586;28;20406;-59
2022/02/28 12:12:27;;;;;;;17.83;12.77;;;;;;;;;;5005602;28;20308;-60
2022/02/28 12:14:55;;;;;;;20.80;15.23;;;;;;;;;;4994183;28;20073;-59
2022/02/28 12:17:34;;;;;;;38.20;27.80;;;;;;;;;;5005042;28;20127;-61
2022/02/28 12:20:18;;;;;;;30.65;22.35;;;;;;;;;;4993118;28;20263;-60
2022/02/28 12:22:55;;;;;;;39.03;27.70;;;;;;;;;;4994296;28;20656;-60
2022/02/28 12:25:36;;;;;;;37.88;25.77;;;;;;;;;;4996368;28;20131;-58
2022/02/28 12:28:20;;;;;;;42.75;31.48;;;;;;;;;;4992280;28;20068;-60
2022/02/28 12:30:51;;;;;;;27.80;20.15;;;;;;;;;;4991436;28;20089;-61
2022/02/28 12:33:17;;;;;;;33.92;25.63;;;;;;;;;;4996674;28;20179;-59
2022/02/28 12:35:53;;;;;;;29.30;20.33;;;;;;;;;;4998161;28;20082;-58
2022/02/28 12:38:19;;;;;;;31.98;24.13;;;;;;;;;;4998525;28;20389;-59
2022/02/28 12:41:04;;;;;;;32.35;23.95;;;;;;;;;;4997965;28;20196;-58
2022/02/28 12:43:30;;;;;;;39.78;29.88;;;;;;;;;;4978432;28;20100;-59
2022/02/28 12:45:57;;;;;;;45.45;35.08;;;;;;;;;;4995644;28;20184;-59
2022/02/28 12:48:22;;;;;;;33.27;25.60;;;;;;;;;;5001052;28;20503;-57
2022/02/28 12:50:48;;;;;;;30.75;23.60;;;;;;;;;;5005811;28;20366;-58
2022/02/28 12:53:16;;;;;;;17.05;11.93;;;;;;;;;;4997658;28;20275;-58
2022/02/28 12:55:48;;;;;;;29.42;16.13;;;;;;;;;;4992996;28;20486;-60
2022/02/28 12:58:15;;;;;;;7.07;5.13;;;;;;;;;;4988965;28;20422;-57
2022/02/28 13:00:40;;;;;;;10.23;6.30;;;;;;;;;;4987926;28;20648;-59
2022/02/28 13:03:05;;;;;;;15.80;12.47;;;;;;;;;;4994780;28;20047;-56
2022/02/28 13:05:30;;;;;;;7.87;5.60;;;;;;;;;;4997138;28;20042;-58
2022/02/28 13:08:02;;;;;;;9.47;6.60;;;;;;;;;;4997688;28;20047;-58
2022/02/28 13:10:28;;;;;;;26.58;20.10;;;;;;;;;;5020392;28;20155;-58
2022/02/28 13:12:53;;;;;;;8.15;5.72;;;;;;;;;;4997218;28;20125;-60
2022/02/28 13:15:18;;;;;;;7.50;4.80;;;;;;;;;;4998324;28;20079;-60
2022/02/28 13:17:45;;;;;;;7.05;5.03;;;;;;;;;;4994203;28;20087;-59
2022/02/28 13:20:11;;;;;;;9.23;6.32;;;;;;;;;;4994564;28;20482;-57
2022/02/28 13:22:36;;;;;;;12.88;4.95;;;;;;;;;;4993653;28;20100;-58
2022/02/28 13:25:01;;;;;;;11.10;9.40;;;;;;;;;;5001436;28;20041;-61
2022/02/28 13:27:27;;;;;;;16.60;13.37;;;;;;;;;;4988396;28;20045;-58
2022/02/28 13:29:54;;;;;;;15.80;12.57;;;;;;;;;;4998212;28;20038;-58
2022/02/28 13:32:19;;;;;;;6.97;4.30;;;;;;;;;;4996832;28;20026;-57
2022/02/28 13:34:46;;;;;;;7.93;5.83;;;;;;;;;;4993978;28;20028;-57
2022/02/28 13:37:11;;;;;;;;;;;;;;;;;;4986365;28;20339;-59
2022/02/28 13:39:37;;;;;;;10.07;7.70;;;;;;;;;;4991508;28;19932;-58
2022/02/28 13:42:10;;;;;;;9.55;7.68;;;;;;;;;;4990981;28;20036;-59
2022/02/28 13:44:45;;;;;;;6.65;4.82;;;;;;;;;;4995758;28;20045;-57
2022/02/28 13:47:11;;;;;;;6.20;3.90;;;;;;;;;;4996904;28;20033;-60
2022/02/28 13:49:37;;;;;;;14.25;10.07;;;;;;;;;;4984801;28;20256;-59
2022/02/28 13:52:03;;;;;;;;;;;;;;;;;;4996467;28;20033;-62
2022/02/28 13:54:29;;;;;;;6.82;3.90;;;;;;;;;;5002120;28;20162;-61
2022/02/28 13:56:55;;;;;;;5.13;3.67;;;;;;;;;;4996350;28;20149;-59
2022/02/28 13:59:20;;;;;;;;;;;;;;;;;;4987784;28;20471;-62
2022/02/28 14:01:49;;;;;;;10.57;8.77;;;;;;;;;;4995156;28;19948;-61
2022/02/28 14:04:14;;;;;;;6.40;3.60;;;;;;;;;;4987175;28;20105;-60
2022/02/28 14:06:39;;;;;;;6.10;3.63;;;;;;;;;;4991382;28;20545;-61
2022/02/28 14:09:05;;;;;;;5.30;3.47;;;;;;;;;;4993141;28;20030;-61
2022/02/28 14:11:30;;;;;;;5.37;3.63;;;;;;;;;;4996675;28;20030;-62
2022/02/28 14:13:56;;;;;;;3.85;3.33;;;;;;;;;;4996957;28;20045;-62
2022/02/28 14:16:39;;;;;;;4.97;3.40;;;;;;;;;;4990902;28;20461;-61
2022/02/28 14:19:12;;;;;;;5.70;3.55;;;;;;;;;;4993503;28;20046;-62
2022/02/28 14:21:39;;;;;;;4.45;3.15;;;;;;;;;;4997196;28;20990;-60
2022/02/28 14:24:08;;;;;;;4.75;3.63;;;;;;;;;;5000488;28;20025;-61